createdAt,value
2022-11-29T00:01:30.040Z,41.40
2022-11-29T00:03:59.699Z,38.50
2022-11-29T00:06:31.666Z,39.80
2022-11-29T00:09:06.367Z,40.90
2022-11-29T00:12:12.296Z,39.80
2022-11-29T00:14:40.752Z,41.10
2022-11-29T00:17:10.855Z,40.20
2022-11-29T00:19:44.656Z,41.80
2022-11-29T00:22:11.698Z,44.50
2022-11-29T00:24:39.776Z,38.20
2022-11-29T00:27:06.912Z,41.70
2022-11-29T00:29:33.956Z,42.50
2022-11-29T00:32:00.973Z,40.00
2022-11-29T00:34:28.365Z,41.30
2022-11-29T00:36:55.473Z,42.20
2022-11-29T00:39:23.005Z,38.10
2022-11-29T00:41:50.060Z,36.30
2022-11-29T00:44:20.384Z,40.50
2022-11-29T00:46:48.551Z,41.00
2022-11-29T00:49:15.665Z,41.40
2022-11-29T00:51:42.678Z,41.50
2022-11-29T00:54:09.689Z,40.70
2022-11-29T00:56:36.791Z,42.10
2022-11-29T00:59:03.884Z,39.10
2022-11-29T01:01:30.925Z,39.70
2022-11-29T01:04:00.574Z,40.30
2022-11-29T01:06:27.580Z,43.00
2022-11-29T01:08:54.635Z,43.70
2022-11-29T01:11:24.866Z,40.30
2022-11-29T01:13:55.828Z,41.00
2022-11-29T01:16:23.256Z,42.90
2022-11-29T01:18:50.396Z,41.10
2022-11-29T01:21:20.939Z,38.80
2022-11-29T01:23:49.194Z,42.20
2022-11-29T01:26:20.124Z,41.70
2022-11-29T01:28:49.128Z,43.90
2022-11-29T01:31:19.365Z,44.80
2022-11-29T01:33:46.340Z,42.20
2022-11-29T01:36:14.225Z,40.80
2022-11-29T01:38:44.696Z,41.90
2022-11-29T01:41:21.298Z,43.30
2022-11-29T01:44:02.849Z,45.50
2022-11-29T01:46:38.557Z,41.00
2022-11-29T01:49:12.785Z,41.90
2022-11-29T01:51:47.491Z,44.40
2022-11-29T01:54:14.681Z,42.30
2022-11-29T01:56:45.250Z,42.80
2022-11-29T01:59:15.291Z,41.40
2022-11-29T02:01:42.482Z,43.80
2022-11-29T02:04:10.111Z,42.20
2022-11-29T02:06:39.384Z,42.40
2022-11-29T02:09:20.357Z,41.70
2022-11-29T02:12:08.566Z,41.80
2022-11-29T02:14:59.617Z,43.90
2022-11-29T02:17:41.566Z,42.60
2022-11-29T02:20:33.171Z,38.80
2022-11-29T02:23:27.936Z,40.90
2022-11-29T02:26:37.220Z,41.80
2022-11-29T02:29:31.249Z,40.90
2022-11-29T02:32:36.106Z,40.50
2022-11-29T02:35:23.207Z,43.10
2022-11-29T02:38:06.119Z,40.30
2022-11-29T02:41:02.577Z,39.90
2022-11-29T02:43:52.692Z,39.70
2022-11-29T02:49:21.891Z,40.40
2022-11-29T02:51:48.727Z,40.70
2022-11-29T02:54:23.921Z,38.10
2022-11-29T02:56:54.517Z,40.60
2022-11-29T02:59:40.089Z,42.40
2022-11-29T03:02:24.609Z,41.30
2022-11-29T03:05:17.032Z,40.60
2022-11-29T03:08:05.730Z,42.30
2022-11-29T03:11:01.150Z,38.60
2022-11-29T03:14:23.987Z,43.50
2022-11-29T03:17:00.469Z,36.10
2022-11-29T03:19:47.558Z,39.90
2022-11-29T03:22:48.027Z,41.30
2022-11-29T03:25:31.440Z,37.70
2022-11-29T03:28:12.808Z,39.50
2022-11-29T03:30:50.416Z,39.80
2022-11-29T03:33:27.511Z,38.90
2022-11-29T03:36:06.614Z,37.40
2022-11-29T03:38:41.529Z,39.50
2022-11-29T03:41:24.464Z,41.30
2022-11-29T03:44:03.179Z,38.10
2022-11-29T03:47:01.027Z,34.60
2022-11-29T03:49:38.385Z,40.60
2022-11-29T03:52:26.514Z,38.90
2022-11-29T03:55:19.504Z,37.70
2022-11-29T03:57:55.508Z,40.80
2022-11-29T04:00:23.308Z,38.40
2022-11-29T04:03:09.117Z,42.60
2022-11-29T04:05:54.909Z,36.70
2022-11-29T04:08:47.671Z,38.80
2022-11-29T04:11:20.648Z,39.00
2022-11-29T04:14:05.310Z,39.10
2022-11-29T04:17:02.564Z,42.90
2022-11-29T04:19:50.475Z,39.50
2022-11-29T04:22:36.377Z,40.40
2022-11-29T04:25:27.680Z,40.10
2022-11-29T04:28:38.573Z,37.30
2022-11-29T04:31:30.023Z,37.50
2022-11-29T04:33:59.974Z,38.40
2022-11-29T04:39:12.140Z,39.80
2022-11-29T04:42:21.019Z,38.50
2022-11-29T04:45:14.911Z,37.00
2022-11-29T04:48:03.772Z,37.80
2022-11-29T04:50:36.386Z,34.90
2022-11-29T04:53:24.562Z,40.20
2022-11-29T04:56:25.421Z,39.50
2022-11-29T04:59:05.603Z,36.70
2022-11-29T05:01:36.977Z,39.10
2022-11-29T05:04:29.893Z,40.00
2022-11-29T05:07:08.408Z,39.10
2022-11-29T05:09:41.153Z,39.60
2022-11-29T05:12:16.968Z,37.70
2022-11-29T05:15:05.105Z,38.00
2022-11-29T05:18:01.208Z,35.40
2022-11-29T05:20:46.928Z,37.40
2022-11-29T05:23:36.081Z,39.60
2022-11-29T05:26:13.538Z,39.10
2022-11-29T05:28:57.711Z,40.50
2022-11-29T05:31:29.520Z,41.10
2022-11-29T05:34:05.525Z,39.50
2022-11-29T05:36:50.800Z,35.30
2022-11-29T05:39:36.230Z,38.20
2022-11-29T05:42:22.073Z,42.70
2022-11-29T05:45:02.377Z,35.10
2022-11-29T05:47:41.327Z,40.10
2022-11-29T05:50:08.564Z,39.60
2022-11-29T05:52:41.478Z,36.40
2022-11-29T05:55:14.843Z,39.00
2022-11-29T05:58:04.045Z,38.50
2022-11-29T06:00:48.459Z,39.00
2022-11-29T06:03:29.604Z,38.80
2022-11-29T06:06:01.546Z,40.50
2022-11-29T06:08:34.485Z,39.20
2022-11-29T06:11:34.920Z,37.50
2022-11-29T06:14:13.625Z,41.40
2022-11-29T06:16:46.243Z,37.90
2022-11-29T06:19:39.759Z,42.30
2022-11-29T06:22:14.503Z,44.60
2022-11-29T06:25:22.460Z,39.40
2022-11-29T06:28:18.792Z,40.00
2022-11-29T06:30:54.565Z,36.10
2022-11-29T06:33:41.252Z,40.20
2022-11-29T06:36:19.346Z,40.80
2022-11-29T06:38:46.694Z,42.30
2022-11-29T06:41:21.077Z,40.40
2022-11-29T06:43:49.165Z,42.20
2022-11-29T06:46:44.897Z,46.00
2022-11-29T06:49:28.447Z,44.20
2022-11-29T06:52:12.539Z,42.70
2022-11-29T06:55:10.154Z,45.80
2022-11-29T06:57:55.326Z,44.70
2022-11-29T07:00:26.551Z,46.50
2022-11-29T07:03:12.173Z,49.80
2022-11-29T07:05:40.410Z,47.30
2022-11-29T07:08:15.462Z,46.60
2022-11-29T07:10:43.697Z,41.80
2022-11-29T07:13:12.980Z,43.30
2022-11-29T07:16:13.925Z,47.80
2022-11-29T07:19:11.740Z,49.50
2022-11-29T07:22:15.329Z,46.70
2022-11-29T07:25:03.109Z,48.00
2022-11-29T07:27:41.256Z,49.00
2022-11-29T07:30:11.321Z,45.00
2022-11-29T07:35:33.799Z,39.00
2022-11-29T07:38:03.597Z,48.50
2022-11-29T07:40:45.161Z,48.30
2022-11-29T07:43:29.911Z,46.10
2022-11-29T07:45:57.031Z,45.50
2022-11-29T07:48:24.044Z,49.30
2022-11-29T07:50:50.980Z,47.60
2022-11-29T07:53:19.794Z,47.70
2022-11-29T07:55:48.070Z,45.00
2022-11-29T07:58:17.050Z,48.00
2022-11-29T08:00:45.217Z,48.60
2022-11-29T08:03:12.310Z,44.60
2022-11-29T08:05:39.888Z,48.70
2022-11-29T08:08:07.202Z,47.10
2022-11-29T08:10:35.042Z,49.80
2022-11-29T08:13:02.330Z,45.30
2022-11-29T08:15:29.504Z,49.20
2022-11-29T08:17:56.522Z,47.40
2022-11-29T08:20:23.524Z,43.90
2022-11-29T08:22:58.676Z,48.60
2022-11-29T08:25:27.124Z,47.20
2022-11-29T08:27:55.300Z,50.50
2022-11-29T08:30:23.514Z,49.60
2022-11-29T08:32:51.952Z,47.50
2022-11-29T08:35:21.242Z,50.00
2022-11-29T08:37:48.551Z,50.80
2022-11-29T08:40:16.488Z,50.80
2022-11-29T08:42:43.365Z,55.30
2022-11-29T08:45:11.725Z,49.80
2022-11-29T08:47:41.656Z,57.90
2022-11-29T08:53:00.035Z,50.80
2022-11-29T08:55:31.522Z,55.20
2022-11-29T08:58:04.829Z,51.30
2022-11-29T09:00:32.781Z,52.60
2022-11-29T09:03:20.171Z,52.80
2022-11-29T09:05:47.278Z,52.00
2022-11-29T09:08:14.609Z,49.10
2022-11-29T09:10:42.248Z,48.70
2022-11-29T09:13:10.390Z,49.00
2022-11-29T09:15:38.724Z,44.80
2022-11-29T09:18:05.807Z,47.60
2022-11-29T09:20:34.160Z,44.00
2022-11-29T09:23:01.267Z,48.20
2022-11-29T09:25:28.731Z,47.30
2022-11-29T09:28:00.765Z,46.50
2022-11-29T09:30:30.818Z,51.90
2022-11-29T09:35:29.711Z,48.60
2022-11-29T09:37:56.670Z,43.00
2022-11-29T09:40:33.297Z,40.20
2022-11-29T09:43:24.873Z,45.60
2022-11-29T09:46:18.361Z,45.60
2022-11-29T09:49:02.569Z,46.30
2022-11-29T09:52:09.793Z,44.10
2022-11-29T09:54:58.557Z,43.70
2022-11-29T09:57:27.954Z,42.90
2022-11-29T10:00:01.353Z,48.10
2022-11-29T10:02:43.848Z,48.00
2022-11-29T10:05:17.070Z,46.70
2022-11-29T10:08:05.529Z,46.90
2022-11-29T10:10:46.428Z,49.50
2022-11-29T10:13:24.893Z,47.10
2022-11-29T10:16:01.053Z,45.10
2022-11-29T10:18:40.448Z,44.30
2022-11-29T10:21:23.826Z,48.80
2022-11-29T10:23:56.538Z,47.80
2022-11-29T10:26:24.543Z,43.70
2022-11-29T10:28:54.691Z,40.50
2022-11-29T10:31:34.452Z,47.40
2022-11-29T10:34:12.207Z,51.90
2022-11-29T10:36:51.857Z,53.40
2022-11-29T10:39:24.739Z,55.40
2022-11-29T10:41:56.401Z,52.90
2022-11-29T10:44:24.268Z,51.30
2022-11-29T10:46:51.896Z,52.10
2022-11-29T10:49:22.936Z,49.70
2022-11-29T10:51:50.019Z,53.20
2022-11-29T10:54:39.836Z,47.30
2022-11-29T10:57:16.046Z,46.20
2022-11-29T11:00:06.449Z,46.80
2022-11-29T11:02:33.984Z,53.50
2022-11-29T11:05:01.408Z,52.90
2022-11-29T11:07:33.002Z,49.70
2022-11-29T11:10:00.511Z,44.90
2022-11-29T11:12:30.232Z,49.30
2022-11-29T11:15:29.337Z,46.30
2022-11-29T11:18:04.264Z,48.50
2022-11-29T11:20:34.609Z,46.20
2022-11-29T11:23:05.002Z,46.90
2022-11-29T11:25:34.969Z,49.10
2022-11-29T11:30:57.718Z,46.80
2022-11-29T11:33:30.712Z,42.50
2022-11-29T11:36:13.632Z,47.30
2022-11-29T11:38:52.793Z,53.20
2022-11-29T11:41:53.519Z,48.90
2022-11-29T11:44:48.102Z,49.10
2022-11-29T11:47:30.702Z,48.20
2022-11-29T11:50:03.493Z,43.10
2022-11-29T11:52:40.545Z,42.70
2022-11-29T11:55:21.153Z,42.90
2022-11-29T11:58:06.030Z,44.50
2022-11-29T12:01:04.263Z,44.90
2022-11-29T12:03:52.880Z,42.20
2022-11-29T12:06:47.423Z,41.80
2022-11-29T12:09:27.014Z,45.90
2022-11-29T12:11:59.995Z,45.30
2022-11-29T12:14:33.055Z,43.10
2022-11-29T12:17:18.471Z,46.40
2022-11-29T12:20:12.942Z,47.70
2022-11-29T12:23:13.630Z,41.00
2022-11-29T12:26:02.207Z,44.30
2022-11-29T12:28:35.096Z,47.10
2022-11-29T12:31:17.407Z,45.40
2022-11-29T12:33:50.387Z,40.70
2022-11-29T12:36:26.452Z,47.00
2022-11-29T12:39:34.941Z,49.60
2022-11-29T12:42:26.539Z,44.80
2022-11-29T12:44:53.466Z,43.10
2022-11-29T12:47:36.598Z,46.90
2022-11-29T12:50:40.248Z,47.10
2022-11-29T12:53:32.425Z,49.80
2022-11-29T12:56:46.926Z,49.50
2022-11-29T12:59:51.186Z,47.80
2022-11-29T13:02:29.046Z,46.60
2022-11-29T13:05:33.494Z,43.80
2022-11-29T13:08:18.513Z,42.70
2022-11-29T13:10:48.242Z,43.90
2022-11-29T13:14:41.702Z,48.70
2022-11-29T13:17:05.415Z,45.90
2022-11-29T13:19:38.805Z,49.70
2022-11-29T13:22:15.196Z,44.60
2022-11-29T13:24:51.306Z,47.10
2022-11-29T13:27:25.002Z,47.90
2022-11-29T13:29:53.380Z,44.20
2022-11-29T13:32:32.101Z,45.40
2022-11-29T13:35:07.517Z,47.60
2022-11-29T13:37:55.198Z,51.30
2022-11-29T13:40:36.822Z,53.20
2022-11-29T13:43:30.840Z,48.70
2022-11-29T13:46:18.553Z,50.10
2022-11-29T13:48:50.002Z,51.40
2022-11-29T13:51:37.088Z,47.10
2022-11-29T13:54:31.769Z,50.90
2022-11-29T13:57:09.327Z,51.20
2022-11-29T13:59:42.825Z,48.80
2022-11-29T14:02:31.087Z,50.00
2022-11-29T14:04:58.471Z,51.90
2022-11-29T14:07:25.546Z,47.00
2022-11-29T14:10:05.364Z,50.50
2022-11-29T14:15:10.951Z,48.20
2022-11-29T14:20:22.814Z,47.80
2022-11-29T14:23:31.843Z,48.60
2022-11-29T14:25:58.836Z,49.50
2022-11-29T14:28:35.191Z,52.30
2022-11-29T14:31:03.478Z,52.00
2022-11-29T14:33:55.413Z,46.10
2022-11-29T14:36:38.237Z,50.20
2022-11-29T14:39:42.717Z,47.00
2022-11-29T14:42:28.534Z,50.80
2022-11-29T14:45:00.236Z,55.60
2022-11-29T14:47:32.509Z,53.30
2022-11-29T14:50:03.611Z,57.00
2022-11-29T14:52:38.666Z,50.80
2022-11-29T14:55:31.007Z,56.90
2022-11-29T14:58:01.363Z,63.70
2022-11-29T15:00:34.431Z,56.70
2022-11-29T15:03:20.863Z,50.20
2022-11-29T15:05:55.012Z,50.80
2022-11-29T15:08:24.945Z,52.30
2022-11-29T15:13:50.658Z,51.80
2022-11-29T15:16:28.388Z,56.50
2022-11-29T15:19:07.549Z,52.40
2022-11-29T15:21:43.523Z,55.40
2022-11-29T15:24:13.817Z,55.70
2022-11-29T15:27:03.478Z,58.60
2022-11-29T15:29:31.228Z,57.90
2022-11-29T15:32:01.217Z,55.50
2022-11-29T15:34:36.475Z,56.10
2022-11-29T15:37:04.161Z,53.20
2022-11-29T15:39:34.138Z,56.20
2022-11-29T15:42:13.328Z,90.20
2022-11-29T15:44:48.346Z,57.60
2022-11-29T15:47:20.804Z,69.60
2022-11-29T15:49:49.332Z,121.70
2022-11-29T15:52:38.060Z,85.60
2022-11-29T15:55:11.325Z,103.40
2022-11-29T15:57:44.755Z,77.90
2022-11-29T16:00:21.194Z,56.80
2022-11-29T16:03:02.261Z,53.10
2022-11-29T16:05:35.822Z,67.30
2022-11-29T16:08:25.942Z,75.80
2022-11-29T16:13:33.992Z,52.30
2022-11-29T16:16:10.186Z,55.70
2022-11-29T16:18:40.421Z,52.00
2022-11-29T16:21:22.408Z,52.80
2022-11-29T16:23:49.675Z,55.70
2022-11-29T16:26:29.340Z,51.70
2022-11-29T16:28:59.576Z,53.00
2022-11-29T16:31:36.139Z,56.30
2022-11-29T16:34:09.747Z,61.30
2022-11-29T16:36:39.110Z,54.90
2022-11-29T16:39:16.540Z,60.20
2022-11-29T16:41:43.848Z,62.10
2022-11-29T16:44:50.131Z,67.90
2022-11-29T16:47:22.792Z,61.40
2022-11-29T16:50:01.896Z,67.00
2022-11-29T16:52:31.518Z,60.40
2022-11-29T16:54:59.201Z,58.20
2022-11-29T16:57:28.214Z,56.40
2022-11-29T17:00:02.533Z,64.80
2022-11-29T17:02:30.023Z,67.50
2022-11-29T17:04:58.060Z,86.20
2022-11-29T17:07:31.483Z,68.90
2022-11-29T17:09:59.210Z,61.90
2022-11-29T17:12:26.337Z,61.20
2022-11-29T17:14:53.533Z,59.30
2022-11-29T17:17:43.239Z,53.80
2022-11-29T17:20:21.235Z,142.70
2022-11-29T17:22:52.330Z,60.30
2022-11-29T17:25:22.995Z,62.10
2022-11-29T17:27:53.280Z,66.30
2022-11-29T17:30:20.876Z,65.90
2022-11-29T17:32:50.553Z,69.20
2022-11-29T17:35:20.185Z,66.50
2022-11-29T17:37:49.807Z,68.90
2022-11-29T17:40:25.022Z,66.50
2022-11-29T17:42:56.081Z,71.70
2022-11-29T17:45:26.608Z,103.60
2022-11-29T17:47:59.415Z,107.80
2022-11-29T17:50:31.667Z,92.60
2022-11-29T17:53:20.928Z,82.40
2022-11-29T17:56:19.955Z,60.30
2022-11-29T17:58:58.159Z,60.20
2022-11-29T18:01:28.100Z,59.20
2022-11-29T18:04:01.348Z,58.90
2022-11-29T18:06:35.072Z,56.00
2022-11-29T18:09:07.086Z,56.10
2022-11-29T18:11:49.331Z,55.40
2022-11-29T18:14:20.363Z,56.70
2022-11-29T18:16:54.008Z,56.00
2022-11-29T18:19:22.062Z,55.10
2022-11-29T18:25:30.530Z,51.30
2022-11-29T18:27:51.715Z,53.70
2022-11-29T18:30:19.112Z,54.50
2022-11-29T18:32:46.419Z,56.60
2022-11-29T18:35:15.996Z,66.70
2022-11-29T18:38:13.373Z,57.70
2022-11-29T18:40:32.548Z,55.60
2022-11-29T18:43:05.677Z,52.70
2022-11-29T18:45:38.142Z,58.90
2022-11-29T18:48:09.860Z,53.80
2022-11-29T18:50:36.973Z,57.50
2022-11-29T18:53:04.481Z,56.00
2022-11-29T18:55:31.928Z,55.30
2022-11-29T18:57:58.974Z,55.70
2022-11-29T19:00:26.129Z,53.30
2022-11-29T19:02:53.558Z,58.20
2022-11-29T19:05:25.170Z,66.20
2022-11-29T19:07:52.337Z,91.00
2022-11-29T19:10:19.272Z,95.40
2022-11-29T19:12:46.241Z,74.80
2022-11-29T19:15:13.427Z,64.50
2022-11-29T19:17:43.284Z,54.00
2022-11-29T19:20:13.466Z,59.50
2022-11-29T19:22:40.668Z,58.00
2022-11-29T19:25:08.228Z,56.20
2022-11-29T19:27:35.256Z,53.50
2022-11-29T19:30:02.390Z,54.10
2022-11-29T19:32:29.517Z,51.90
2022-11-29T19:34:56.901Z,56.00
2022-11-29T19:37:23.969Z,58.90
2022-11-29T19:39:53.643Z,61.20
2022-11-29T19:42:22.268Z,61.20
2022-11-29T19:45:18.722Z,55.70
2022-11-29T19:48:09.721Z,61.00
2022-11-29T19:57:23.768Z,56.80
2022-11-29T19:59:50.991Z,51.80
2022-11-29T20:02:20.677Z,57.50
2022-11-29T20:04:52.944Z,61.80
2022-11-29T20:07:23.209Z,61.40
2022-11-29T20:09:50.906Z,57.20
2022-11-29T20:12:21.190Z,57.70
2022-11-29T20:15:00.949Z,54.80
2022-11-29T20:17:29.703Z,53.70
2022-11-29T20:20:03.929Z,53.40
2022-11-29T20:25:09.702Z,50.30
2022-11-29T20:27:37.859Z,55.30
2022-11-29T20:30:06.751Z,54.80
2022-11-29T20:32:36.379Z,48.90
2022-11-29T20:35:03.935Z,52.20
2022-11-29T20:37:43.070Z,50.80
2022-11-29T20:41:02.719Z,47.10
2022-11-29T20:43:58.307Z,48.80
2022-11-29T20:46:26.145Z,51.10
2022-11-29T20:48:53.876Z,48.70
2022-11-29T20:51:39.538Z,49.50
2022-11-29T20:54:06.619Z,48.90
2022-11-29T20:56:33.662Z,51.80
2022-11-29T20:59:05.712Z,54.10
2022-11-29T21:01:35.493Z,54.60
2022-11-29T21:04:03.119Z,50.40
2022-11-29T21:06:30.216Z,51.70
2022-11-29T21:08:57.806Z,46.10
2022-11-29T21:11:25.519Z,54.90
2022-11-29T21:13:52.839Z,46.60
2022-11-29T21:16:27.132Z,47.00
2022-11-29T21:19:02.358Z,51.00
2022-11-29T21:21:40.018Z,46.50
2022-11-29T21:24:52.605Z,45.40
2022-11-29T21:27:34.103Z,50.00
2022-11-29T21:30:05.539Z,52.00
2022-11-29T21:32:34.206Z,53.50
2022-11-29T21:35:08.428Z,51.80
2022-11-29T21:37:37.028Z,50.00
2022-11-29T21:40:04.874Z,51.60
2022-11-29T21:42:34.547Z,47.90
2022-11-29T21:45:01.832Z,50.10
2022-11-29T21:47:32.944Z,52.80
2022-11-29T21:50:00.084Z,49.50
2022-11-29T21:52:27.277Z,52.10
2022-11-29T21:54:57.045Z,50.60
2022-11-29T21:57:24.143Z,52.70
2022-11-29T21:59:51.304Z,51.50
2022-11-29T22:02:20.992Z,48.70
2022-11-29T22:04:48.760Z,53.50
2022-11-29T22:07:15.944Z,53.80
2022-11-29T22:09:42.984Z,55.00
2022-11-29T22:12:32.563Z,49.20
2022-11-29T22:14:57.285Z,51.90
2022-11-29T22:17:24.269Z,48.40
2022-11-29T22:19:59.149Z,52.60
2022-11-29T22:23:17.642Z,51.70
2022-11-29T22:29:54.697Z,45.50
2022-11-29T22:32:23.209Z,54.20
2022-11-29T22:34:51.818Z,51.50
2022-11-29T22:37:44.438Z,56.40
2022-11-29T22:40:13.246Z,54.30
2022-11-29T22:49:49.838Z,54.10
2022-11-29T22:53:10.699Z,49.30
2022-11-29T23:23:07.058Z,46.70
2022-11-29T23:25:36.695Z,53.00
2022-11-29T23:28:06.211Z,56.70
2022-11-29T23:30:35.708Z,49.30
2022-11-29T23:33:05.348Z,45.40
2022-11-29T23:35:36.671Z,54.40
2022-11-29T23:38:06.927Z,50.10
2022-11-29T23:40:38.592Z,49.60
2022-11-29T23:43:08.374Z,52.80
2022-11-29T23:45:39.440Z,50.80
2022-11-29T23:48:09.295Z,51.10
2022-11-29T23:50:36.276Z,53.80
2022-11-29T23:53:03.307Z,48.50
2022-11-29T23:55:30.356Z,47.00
2022-11-29T23:58:00.263Z,50.50
